Aalter, Belgium
Current Conditions -  °F | °C
As of 4:25 AM on Monday 24 Nov 2014 (Local Time) from EHFS Reporting Station
Few Clouds Few Clouds  
Wind Chill:   Ceiling: Unl
Heat Index:   Visibility: 6mi
Dew Point:   Wind: 7mph
Humidity: 87%   Direction: 310°NW
Pressure: 30.15"   Gusts: NA
Location:  51.09°N, 3.45°E
Report Text: EHFS 240325Z AUTO 31006KT 9999 FEW023/// 09/07 Q1021
Loading
Personal Weather Stations






























Interactive Weather Map New forecast layout! Learn more

10-Day Weather Forecast

Advertisements
Track Severe Weather on mobile